Hovedside
METAR-TAF:

METAR-TAF

Lufthavner :

Wonderboom Airport

Pretoria, Sør-Afrika

breddegrad: 25-39S, lengdegrad: 028-13E, høyde over havet: 1248 m

Gjeldene værobservasjon

Denne rapporten ble laget for 12 minutter siden, klokken 02:00 UTC
Vind 4 kt fra Sørøst
Temperatur 6°C
Luftfuktighet 70%
Trykk 1028 hPa

METAR: FAWB 140200Z AUTO 14004KT //// // ////// 06/01 Q1028

Tid: 04:12 (02:12 UTC)

Varsel

Denne rapporten ble laget for 14 timer og 59 minutter siden, klokken 11:13 UTC
Varsel gyldig fra 13. klokken 10 UTC til 13. klokken 18 UTC
Vind 3 kt fra skiftende retning
Sikt 10 km eller mer
ingen skyer under 1500 m og ingen bygeskyer

TAF: FAWB 131113Z 1310/1318 VRB03KT CAVOK TX23/1312Z TN13/1318Z

Værobservasjoner og værvarsel for over 4000 flyplasser (METAR- og TAF-rapporter).

Tilgjengelige stasjoner er representert av de røde og gule prikkene på kartet.

Hold musepekeren over prikken for å se navnet på stasjonen.

Klikk så for å se værobservasjoner og -varsler.

For å forandre kartet kan du klikke på den grønne knappen med svart kryss for å zoome inn, på den grønne knappen med strek for å zoome ut, eller på de grønne pilene for å se tilstøtende kart.


METAR-TAF: